Time;durP1;ratioP1;P1;durP2;ratioP2;P2;SDS_P1;SDS_P2;PMS_P1;PMS_P2;Temp;Humidity;BMP_temperature;BMP_pressure;BME280_temperature;BME280_humidity;BME280_pressure;Samples;Min_cycle;Max_cycle;Signal;HPM_P1;HPM_P2
2021/09/03 00:02:18;;;;;;;24.25;9.70;;;;;;;;;;4984130;28;20022;-68
2021/09/03 00:04:45;;;;;;;16.17;7.88;;;;;;;;;;4976312;28;20078;-69
2021/09/03 00:07:11;;;;;;;15.70;8.25;;;;;;;;;;4982336;28;20042;-69
2021/09/03 00:09:37;;;;;;;22.45;9.27;;;;;;;;;;4971784;28;20354;-69
2021/09/03 00:12:04;;;;;;;22.52;9.98;;;;;;;;;;4984489;28;20039;-69
2021/09/03 00:14:30;;;;;;;17.83;8.80;;;;;;;;;;4972415;28;20034;-69
2021/09/03 00:16:56;;;;;;;17.75;8.00;;;;;;;;;;4975749;28;20042;-69
2021/09/03 00:19:22;;;;;;;19.27;9.70;;;;;;;;;;4980480;28;20030;-69
2021/09/03 00:21:47;;;;;;;18.95;8.88;;;;;;;;;;4988290;28;20026;-69
2021/09/03 00:24:14;;;;;;;13.65;8.30;;;;;;;;;;4977668;28;20042;-69
2021/09/03 00:26:40;;;;;;;15.07;8.27;;;;;;;;;;4990004;28;20068;-69
2021/09/03 00:29:06;;;;;;;17.40;8.60;;;;;;;;;;4984218;28;20061;-69
2021/09/03 00:31:32;;;;;;;21.45;9.07;;;;;;;;;;4976376;28;20066;-69
2021/09/03 00:33:58;;;;;;;23.85;9.75;;;;;;;;;;4985686;28;20035;-69
2021/09/03 00:36:24;;;;;;;19.65;8.43;;;;;;;;;;4967003;28;20030;-69
2021/09/03 00:38:50;;;;;;;19.85;9.85;;;;;;;;;;4982557;28;20026;-69
2021/09/03 00:41:16;;;;;;;18.80;8.07;;;;;;;;;;4986811;28;20019;-68
2021/09/03 00:43:42;;;;;;;21.25;7.95;;;;;;;;;;4981149;28;20034;-69
2021/09/03 00:46:08;;;;;;;22.25;7.80;;;;;;;;;;4985278;28;20121;-69
2021/09/03 00:48:34;;;;;;;17.73;8.48;;;;;;;;;;4982779;28;20122;-68
2021/09/03 00:51:00;;;;;;;20.45;9.55;;;;;;;;;;4986197;28;20106;-69
2021/09/03 00:53:25;;;;;;;22.73;8.25;;;;;;;;;;4983840;28;20105;-69
2021/09/03 00:55:51;;;;;;;23.00;8.70;;;;;;;;;;4982874;28;20551;-69
2021/09/03 00:58:21;;;;;;;16.67;8.63;;;;;;;;;;4973709;28;20480;-68
2021/09/03 01:00:48;;;;;;;14.80;7.93;;;;;;;;;;4979734;28;20030;-68
2021/09/03 01:03:13;;;;;;;20.30;8.90;;;;;;;;;;4977165;28;20038;-69
2021/09/03 01:05:39;;;;;;;23.30;10.13;;;;;;;;;;4986744;28;20430;-69
2021/09/03 01:08:05;;;;;;;17.85;8.15;;;;;;;;;;4984273;28;20041;-69
2021/09/03 01:10:31;;;;;;;15.70;8.52;;;;;;;;;;4988962;28;20066;-69
2021/09/03 01:12:57;;;;;;;15.88;8.65;;;;;;;;;;4975903;28;20073;-68
2021/09/03 01:15:23;;;;;;;22.10;8.70;;;;;;;;;;4978797;28;20122;-69
2021/09/03 01:17:49;;;;;;;18.77;8.45;;;;;;;;;;4990471;28;20022;-68
2021/09/03 01:20:15;;;;;;;17.42;8.23;;;;;;;;;;4980803;28;20031;-69
2021/09/03 01:22:41;;;;;;;22.15;9.35;;;;;;;;;;4977036;28;20396;-69
2021/09/03 01:25:08;;;;;;;20.63;8.15;;;;;;;;;;4976506;28;20034;-68
2021/09/03 01:27:34;;;;;;;18.42;8.25;;;;;;;;;;4974513;28;20029;-68
2021/09/03 01:30:00;;;;;;;18.10;8.80;;;;;;;;;;4989528;28;20514;-69
2021/09/03 01:32:26;;;;;;;16.83;8.63;;;;;;;;;;4981208;28;20027;-69
2021/09/03 01:34:52;;;;;;;19.15;9.15;;;;;;;;;;4981928;28;20019;-69
2021/09/03 01:37:18;;;;;;;22.90;8.23;;;;;;;;;;4987755;28;20026;-68
2021/09/03 01:39:44;;;;;;;19.88;8.20;;;;;;;;;;4982732;28;20022;-69
2021/09/03 01:42:10;;;;;;;19.95;8.43;;;;;;;;;;4989224;28;20069;-69
2021/09/03 01:44:35;;;;;;;16.95;7.88;;;;;;;;;;4976188;28;20026;-69
2021/09/03 01:47:01;;;;;;;17.25;8.15;;;;;;;;;;4982233;28;20042;-69
2021/09/03 01:49:27;;;;;;;21.58;9.10;;;;;;;;;;4991977;28;20034;-69
2021/09/03 01:51:53;;;;;;;24.30;8.77;;;;;;;;;;4992498;28;20026;-69
2021/09/03 01:54:19;;;;;;;18.27;9.05;;;;;;;;;;4992032;28;20034;-68
2021/09/03 01:56:45;;;;;;;19.75;8.27;;;;;;;;;;4978026;28;20105;-69
2021/09/03 01:59:11;;;;;;;26.85;10.02;;;;;;;;;;4977711;28;20399;-69
2021/09/03 02:01:37;;;;;;;20.35;9.15;;;;;;;;;;4973844;28;20035;-69
2021/09/03 02:04:03;;;;;;;18.08;7.47;;;;;;;;;;4974429;28;20046;-69
2021/09/03 02:06:29;;;;;;;20.27;8.23;;;;;;;;;;4987782;28;20072;-68
2021/09/03 02:08:55;;;;;;;17.58;8.10;;;;;;;;;;4987717;28;20046;-69
2021/09/03 02:11:22;;;;;;;24.90;9.95;;;;;;;;;;4979517;28;20019;-69
2021/09/03 02:13:48;;;;;;;24.30;9.65;;;;;;;;;;4976132;28;20130;-69
2021/09/03 02:16:14;;;;;;;25.17;10.15;;;;;;;;;;4984721;28;20109;-69
2021/09/03 02:18:39;;;;;;;18.67;9.20;;;;;;;;;;4987250;28;20488;-68
2021/09/03 02:21:05;;;;;;;27.42;9.50;;;;;;;;;;4980758;28;20630;-69
2021/09/03 02:23:31;;;;;;;22.52;9.50;;;;;;;;;;4975218;28;20400;-69
2021/09/03 02:25:58;;;;;;;20.08;9.57;;;;;;;;;;4987216;28;20097;-68
2021/09/03 02:28:24;;;;;;;26.80;10.00;;;;;;;;;;4986244;28;20070;-69
2021/09/03 02:30:50;;;;;;;22.90;10.00;;;;;;;;;;4972157;28;20121;-69
2021/09/03 02:33:16;;;;;;;25.23;12.23;;;;;;;;;;4989350;28;20026;-69
2021/09/03 02:35:43;;;;;;;25.75;10.52;;;;;;;;;;4991609;28;20034;-69
2021/09/03 02:38:09;;;;;;;21.58;10.43;;;;;;;;;;4980191;28;20014;-69
2021/09/03 02:40:35;;;;;;;23.30;10.60;;;;;;;;;;4975061;28;20324;-68
2021/09/03 02:43:02;;;;;;;28.85;11.07;;;;;;;;;;4987074;28;20018;-69
2021/09/03 02:45:28;;;;;;;26.55;12.20;;;;;;;;;;4984573;28;20055;-69
2021/09/03 02:47:54;;;;;;;23.50;9.98;;;;;;;;;;4980641;28;20481;-69
2021/09/03 02:50:20;;;;;;;33.75;11.73;;;;;;;;;;4984356;28;20105;-69
2021/09/03 02:52:46;;;;;;;24.85;11.27;;;;;;;;;;4980538;28;20038;-69
2021/09/03 02:55:12;;;;;;;21.80;11.43;;;;;;;;;;4990021;28;20018;-69
2021/09/03 02:57:39;;;;;;;29.55;12.55;;;;;;;;;;4983764;28;20032;-69
2021/09/03 03:00:06;;;;;;;25.65;11.35;;;;;;;;;;4990923;28;20065;-69
2021/09/03 03:02:32;;;;;;;34.10;12.90;;;;;;;;;;4982502;28;20022;-69
2021/09/03 03:04:58;;;;;;;28.50;11.73;;;;;;;;;;4991124;28;20373;-69
2021/09/03 03:07:24;;;;;;;26.00;12.38;;;;;;;;;;4985079;28;20085;-68
2021/09/03 03:09:50;;;;;;;27.60;12.35;;;;;;;;;;4979053;28;20023;-68
2021/09/03 03:12:19;;;;;;;24.38;10.90;;;;;;;;;;4971965;28;20015;-68
2021/09/03 03:14:46;;;;;;;33.47;11.65;;;;;;;;;;4975250;28;20022;-68
2021/09/03 03:17:12;;;;;;;30.48;12.65;;;;;;;;;;4990521;28;20189;-68
2021/09/03 03:19:38;;;;;;;26.98;12.30;;;;;;;;;;4990849;28;20027;-68
2021/09/03 03:22:04;;;;;;;27.20;11.27;;;;;;;;;;4980157;28;20030;-68
2021/09/03 03:24:30;;;;;;;25.42;11.70;;;;;;;;;;4997279;28;20049;-68
2021/09/03 03:26:56;;;;;;;26.52;11.23;;;;;;;;;;4984232;28;20042;-68
2021/09/03 03:29:23;;;;;;;27.63;11.52;;;;;;;;;;4983126;28;20022;-68
2021/09/03 03:31:49;;;;;;;26.77;11.82;;;;;;;;;;4977606;28;20023;-68
2021/09/03 03:34:15;;;;;;;31.63;12.93;;;;;;;;;;4986633;28;20053;-68
2021/09/03 03:36:41;;;;;;;30.27;13.27;;;;;;;;;;4981509;28;20046;-68
2021/09/03 03:39:07;;;;;;;26.65;12.98;;;;;;;;;;4988900;28;20054;-68
2021/09/03 03:41:33;;;;;;;29.42;12.52;;;;;;;;;;4992392;28;20097;-68
2021/09/03 03:43:59;;;;;;;29.23;12.45;;;;;;;;;;4979063;28;20481;-68
2021/09/03 03:46:25;;;;;;;29.05;12.80;;;;;;;;;;4993985;28;20033;-68
2021/09/03 03:48:51;;;;;;;29.02;12.88;;;;;;;;;;4995206;28;20047;-68
2021/09/03 03:51:17;;;;;;;28.05;12.60;;;;;;;;;;4986792;28;20027;-68
2021/09/03 03:53:43;;;;;;;29.42;13.48;;;;;;;;;;4989988;28;20488;-68
2021/09/03 03:56:09;;;;;;;35.42;13.85;;;;;;;;;;4990576;28;20023;-68
2021/09/03 03:58:35;;;;;;;31.98;12.43;;;;;;;;;;4990693;28;20026;-68
2021/09/03 04:01:01;;;;;;;26.65;13.65;;;;;;;;;;4977487;28;20022;-68
2021/09/03 04:03:27;;;;;;;33.53;13.43;;;;;;;;;;4990829;28;20376;-68
2021/09/03 04:05:54;;;;;;;32.05;13.52;;;;;;;;;;4980541;28;20034;-68
2021/09/03 04:08:20;;;;;;;32.45;15.35;;;;;;;;;;4979383;28;20104;-68
2021/09/03 04:10:46;;;;;;;31.52;13.68;;;;;;;;;;4990241;28;20054;-68
2021/09/03 04:13:11;;;;;;;34.00;13.80;;;;;;;;;;4990524;28;20617;-68
2021/09/03 04:15:37;;;;;;;31.65;13.18;;;;;;;;;;4990398;28;20026;-68
2021/09/03 04:18:03;;;;;;;35.40;13.02;;;;;;;;;;4989742;28;20062;-68
2021/09/03 04:20:29;;;;;;;32.10;12.77;;;;;;;;;;4988943;28;20037;-68
2021/09/03 04:22:55;;;;;;;33.22;14.10;;;;;;;;;;4971221;28;20019;-68
2021/09/03 04:25:21;;;;;;;29.90;13.57;;;;;;;;;;4974715;28;20511;-68
2021/09/03 04:27:47;;;;;;;32.40;14.00;;;;;;;;;;4987567;28;20039;-68
2021/09/03 04:30:13;;;;;;;30.00;12.63;;;;;;;;;;4974642;28;20030;-68
2021/09/03 04:32:39;;;;;;;34.55;15.38;;;;;;;;;;4990662;28;20037;-68
2021/09/03 04:35:06;;;;;;;35.03;14.68;;;;;;;;;;4984278;28;20026;-68
2021/09/03 04:37:32;;;;;;;29.33;13.18;;;;;;;;;;4978339;28;20042;-68
2021/09/03 04:39:58;;;;;;;35.67;15.10;;;;;;;;;;4981137;28;20027;-68
2021/09/03 04:42:24;;;;;;;35.25;14.00;;;;;;;;;;4990942;28;20062;-68
2021/09/03 04:44:50;;;;;;;33.38;13.68;;;;;;;;;;4984333;28;20480;-68
2021/09/03 04:47:16;;;;;;;35.10;14.52;;;;;;;;;;4975543;28;20030;-68
2021/09/03 04:49:42;;;;;;;35.72;16.05;;;;;;;;;;4989735;28;20026;-68
2021/09/03 04:52:08;;;;;;;30.48;13.00;;;;;;;;;;4988837;28;20110;-68
2021/09/03 04:54:33;;;;;;;33.80;13.40;;;;;;;;;;4987411;28;20077;-68
2021/09/03 04:56:59;;;;;;;37.15;14.38;;;;;;;;;;4987936;28;20364;-68
2021/09/03 04:59:25;;;;;;;32.20;15.73;;;;;;;;;;4980050;28;20488;-68
2021/09/03 05:01:51;;;;;;;33.20;14.90;;;;;;;;;;4986212;28;20066;-68
2021/09/03 05:04:17;;;;;;;35.40;14.38;;;;;;;;;;4979539;28;20114;-68
2021/09/03 05:06:43;;;;;;;34.65;14.10;;;;;;;;;;4977484;28;20182;-68
2021/09/03 05:09:09;;;;;;;51.03;15.95;;;;;;;;;;4989225;28;20049;-68
2021/09/03 05:11:35;;;;;;;27.52;13.02;;;;;;;;;;4992947;28;20514;-68
2021/09/03 05:14:01;;;;;;;34.75;13.80;;;;;;;;;;4991597;28;20168;-68
2021/09/03 05:16:27;;;;;;;30.80;13.13;;;;;;;;;;4992868;28;20076;-68
2021/09/03 05:18:54;;;;;;;34.30;15.00;;;;;;;;;;4991611;28;20038;-68
2021/09/03 05:21:20;;;;;;;32.97;13.55;;;;;;;;;;4981322;28;20081;-68
2021/09/03 05:23:46;;;;;;;32.75;14.07;;;;;;;;;;4992508;28;20026;-68
2021/09/03 05:26:12;;;;;;;34.38;14.23;;;;;;;;;;4979192;28;20026;-68
2021/09/03 05:28:38;;;;;;;25.70;13.00;;;;;;;;;;4992810;28;20113;-68
2021/09/03 05:31:04;;;;;;;37.95;14.82;;;;;;;;;;4975801;28;20128;-68
2021/09/03 05:33:30;;;;;;;34.55;13.82;;;;;;;;;;4979232;28;20098;-68
2021/09/03 05:35:56;;;;;;;30.25;13.02;;;;;;;;;;4976200;28;20467;-68
2021/09/03 05:38:22;;;;;;;29.08;13.13;;;;;;;;;;4981147;28;20113;-68
2021/09/03 05:40:48;;;;;;;31.60;12.52;;;;;;;;;;4978710;28;20050;-68
2021/09/03 05:43:20;;;;;;;28.63;12.65;;;;;;;;;;4982615;28;20023;-68
2021/09/03 05:45:46;;;;;;;24.35;11.93;;;;;;;;;;4987694;28;20038;-68
2021/09/03 05:48:11;;;;;;;26.98;11.52;;;;;;;;;;4987046;28;20093;-69
2021/09/03 05:50:37;;;;;;;27.92;12.05;;;;;;;;;;4988639;28;20050;-68
2021/09/03 05:53:04;;;;;;;22.33;10.95;;;;;;;;;;4990203;28;20065;-68
2021/09/03 05:55:29;;;;;;;29.58;12.73;;;;;;;;;;4990168;28;20207;-68
2021/09/03 05:57:55;;;;;;;22.00;10.73;;;;;;;;;;4988779;28;20030;-68
2021/09/03 06:00:21;;;;;;;27.85;11.15;;;;;;;;;;4989070;28;20105;-68
2021/09/03 06:02:47;;;;;;;23.38;11.10;;;;;;;;;;4988578;28;20026;-68
2021/09/03 06:05:14;;;;;;;23.02;9.60;;;;;;;;;;4990831;28;20022;-69
2021/09/03 06:07:40;;;;;;;28.63;13.48;;;;;;;;;;4986187;28;20029;-68
2021/09/03 06:10:06;;;;;;;21.23;9.93;;;;;;;;;;4986817;28;20062;-69
2021/09/03 06:12:32;;;;;;;21.67;11.07;;;;;;;;;;4992477;28;20031;-69
2021/09/03 06:14:58;;;;;;;22.30;9.98;;;;;;;;;;4997304;28;20027;-69
2021/09/03 06:17:24;;;;;;;23.70;9.73;;;;;;;;;;4996850;28;20034;-69
2021/09/03 06:19:50;;;;;;;20.75;9.57;;;;;;;;;;4994352;28;20031;-69
2021/09/03 06:22:16;;;;;;;26.45;10.13;;;;;;;;;;4991885;28;20023;-68
2021/09/03 06:24:42;;;;;;;21.13;9.13;;;;;;;;;;4993246;28;20510;-68
2021/09/03 06:27:09;;;;;;;20.90;10.10;;;;;;;;;;4994993;28;20026;-68
2021/09/03 06:29:39;;;;;;;20.73;9.93;;;;;;;;;;4992630;28;20026;-69
2021/09/03 06:32:05;;;;;;;16.77;8.40;;;;;;;;;;4977395;28;20034;-68
2021/09/03 06:34:31;;;;;;;18.92;9.73;;;;;;;;;;4992634;28;20030;-68
2021/09/03 06:36:57;;;;;;;20.70;10.70;;;;;;;;;;4988035;28;20080;-68
2021/09/03 06:39:23;;;;;;;20.75;10.00;;;;;;;;;;4990465;28;20109;-69
2021/09/03 06:41:49;;;;;;;18.40;9.98;;;;;;;;;;4991713;28;20057;-69
2021/09/03 06:44:15;;;;;;;19.52;9.20;;;;;;;;;;4986919;28;20076;-68
2021/09/03 06:46:41;;;;;;;20.95;9.82;;;;;;;;;;4987624;28;20110;-68
2021/09/03 06:49:07;;;;;;;16.67;9.05;;;;;;;;;;4987671;28;20097;-68
2021/09/03 06:51:33;;;;;;;37.45;11.80;;;;;;;;;;4986464;28;20110;-69
2021/09/03 06:53:59;;;;;;;18.10;9.43;;;;;;;;;;4985021;28;20988;-69
2021/09/03 06:56:25;;;;;;;19.85;9.88;;;;;;;;;;4986648;28;20038;-68
2021/09/03 06:58:51;;;;;;;23.38;10.23;;;;;;;;;;4988256;28;20041;-68
2021/09/03 07:01:17;;;;;;;17.77;9.45;;;;;;;;;;4986270;28;20019;-68
2021/09/03 07:03:43;;;;;;;16.50;9.48;;;;;;;;;;4988203;28;20538;-68
2021/09/03 07:06:09;;;;;;;16.02;9.80;;;;;;;;;;4986565;28;20022;-69
2021/09/03 07:08:35;;;;;;;17.48;8.90;;;;;;;;;;4970195;28;20080;-69
2021/09/03 07:11:01;;;;;;;19.90;10.50;;;;;;;;;;4987283;28;20106;-69
2021/09/03 07:13:27;;;;;;;19.40;9.85;;;;;;;;;;4990317;28;20034;-68
2021/09/03 07:15:53;;;;;;;15.95;9.00;;;;;;;;;;4987752;28;20026;-69
2021/09/03 07:18:19;;;;;;;19.38;11.25;;;;;;;;;;4986041;28;20030;-69
2021/09/03 07:20:45;;;;;;;18.25;9.82;;;;;;;;;;4985825;28;20468;-69
2021/09/03 07:23:11;;;;;;;18.98;9.75;;;;;;;;;;4986889;28;20018;-69
2021/09/03 07:25:37;;;;;;;19.35;10.15;;;;;;;;;;4990346;28;20034;-69
2021/09/03 07:28:03;;;;;;;17.92;9.52;;;;;;;;;;4985733;28;20019;-69
2021/09/03 07:30:28;;;;;;;21.98;10.93;;;;;;;;;;4986345;28;20113;-69
2021/09/03 07:32:54;;;;;;;17.38;9.38;;;;;;;;;;4987073;28;20033;-69
2021/09/03 07:35:20;;;;;;;18.77;10.48;;;;;;;;;;4985758;28;20154;-69
2021/09/03 07:37:46;;;;;;;17.92;9.38;;;;;;;;;;4985443;28;20089;-69
2021/09/03 07:40:12;;;;;;;19.23;10.00;;;;;;;;;;4987811;28;20468;-68
2021/09/03 07:42:38;;;;;;;17.38;9.27;;;;;;;;;;4983580;28;20030;-69
2021/09/03 07:45:05;;;;;;;16.60;9.18;;;;;;;;;;4972402;28;20018;-69
2021/09/03 07:47:31;;;;;;;19.77;10.13;;;;;;;;;;4986180;28;20446;-68
2021/09/03 07:49:57;;;;;;;20.38;10.23;;;;;;;;;;4986452;28;20026;-68
2021/09/03 07:52:23;;;;;;;18.42;10.52;;;;;;;;;;4986102;28;20030;-69
2021/09/03 07:54:49;;;;;;;14.32;9.63;;;;;;;;;;4987364;28;20053;-69
2021/09/03 07:57:15;;;;;;;15.25;9.63;;;;;;;;;;4979942;28;20476;-69
2021/09/03 07:59:41;;;;;;;16.33;9.45;;;;;;;;;;4990181;28;20026;-68
2021/09/03 08:02:07;;;;;;;16.88;8.77;;;;;;;;;;4973207;28;20033;-68
2021/09/03 08:04:33;;;;;;;17.85;9.20;;;;;;;;;;4984556;28;20114;-69
2021/09/03 08:06:59;;;;;;;17.20;9.38;;;;;;;;;;4990991;28;20133;-69
2021/09/03 08:09:25;;;;;;;17.30;8.82;;;;;;;;;;4987390;28;20543;-68
2021/09/03 08:11:52;;;;;;;18.58;9.43;;;;;;;;;;4989783;28;20033;-68
2021/09/03 08:14:18;;;;;;;21.30;10.30;;;;;;;;;;4985486;28;20030;-69
2021/09/03 08:16:44;;;;;;;17.33;10.60;;;;;;;;;;4986704;28;20491;-68
2021/09/03 08:19:10;;;;;;;17.40;9.55;;;;;;;;;;4979408;28;20030;-69
2021/09/03 08:21:36;;;;;;;17.42;10.15;;;;;;;;;;4993247;28;20027;-69
2021/09/03 08:24:03;;;;;;;16.77;10.13;;;;;;;;;;4990418;28;20041;-68
2021/09/03 08:26:29;;;;;;;18.63;8.82;;;;;;;;;;4991892;28;20114;-69
2021/09/03 08:28:55;;;;;;;18.98;9.27;;;;;;;;;;4987147;28;20106;-68
2021/09/03 08:31:21;;;;;;;14.80;8.55;;;;;;;;;;4990804;28;20034;-69
2021/09/03 08:33:47;;;;;;;19.35;9.77;;;;;;;;;;4983350;28;20034;-69
2021/09/03 08:36:13;;;;;;;18.50;9.55;;;;;;;;;;4989415;28;20026;-69
2021/09/03 08:38:39;;;;;;;21.42;9.32;;;;;;;;;;4989843;28;20053;-69
2021/09/03 08:41:05;;;;;;;16.70;9.88;;;;;;;;;;4984224;28;20023;-69
2021/09/03 08:43:31;;;;;;;15.90;8.88;;;;;;;;;;4985371;28;20030;-69
2021/09/03 08:45:57;;;;;;;17.45;8.52;;;;;;;;;;4993448;28;20022;-69
2021/09/03 08:48:24;;;;;;;19.45;9.30;;;;;;;;;;4990397;28;20396;-69
2021/09/03 08:50:51;;;;;;;18.15;8.65;;;;;;;;;;4990767;28;20029;-69
2021/09/03 08:53:18;;;;;;;17.25;9.60;;;;;;;;;;4990389;28;20030;-69
2021/09/03 08:55:45;;;;;;;17.17;9.88;;;;;;;;;;4991478;28;20033;-69
2021/09/03 08:58:11;;;;;;;19.90;9.48;;;;;;;;;;4989979;28;20117;-69
2021/09/03 09:00:37;;;;;;;18.17;10.02;;;;;;;;;;4972469;28;20117;-69
2021/09/03 09:03:08;;;;;;;19.33;10.05;;;;;;;;;;4991731;28;20022;-69
2021/09/03 09:05:49;;;;;;;18.63;9.55;;;;;;;;;;4993218;28;20034;-69
2021/09/03 09:08:15;;;;;;;16.63;8.50;;;;;;;;;;4993429;28;20041;-69
2021/09/03 09:10:48;;;;;;;14.80;9.32;;;;;;;;;;4990368;28;20068;-69
2021/09/03 09:13:15;;;;;;;15.80;8.45;;;;;;;;;;4989032;28;20105;-69
2021/09/03 09:15:41;;;;;;;15.18;8.68;;;;;;;;;;4991851;28;20053;-69
2021/09/03 09:18:07;;;;;;;15.75;8.13;;;;;;;;;;4988812;28;20069;-69
2021/09/03 09:20:34;;;;;;;16.67;8.80;;;;;;;;;;4990839;28;20027;-69
2021/09/03 09:23:03;;;;;;;19.20;8.32;;;;;;;;;;4986833;28;20388;-71
2021/09/03 09:25:31;;;;;;;15.82;8.63;;;;;;;;;;4986477;28;20109;-69
2021/09/03 09:28:15;;;;;;;14.23;8.48;;;;;;;;;;4989888;28;20030;-69
2021/09/03 09:30:43;;;;;;;14.57;7.68;;;;;;;;;;4989796;28;20033;-70
2021/09/03 09:33:15;;;;;;;14.25;7.32;;;;;;;;;;4992300;28;20130;-69
2021/09/03 09:35:43;;;;;;;16.75;8.65;;;;;;;;;;4988470;28;20109;-69
2021/09/03 09:38:09;;;;;;;17.05;8.07;;;;;;;;;;4991786;28;20030;-69
2021/09/03 09:40:54;;;;;;;15.55;7.75;;;;;;;;;;4986680;28;20444;-69
2021/09/03 09:43:24;;;;;;;16.98;7.88;;;;;;;;;;4984018;28;20026;-70
2021/09/03 09:46:09;;;;;;;12.48;7.47;;;;;;;;;;4984747;28;20026;-71
2021/09/03 09:48:51;;;;;;;13.95;9.18;;;;;;;;;;4985871;28;20061;-71
2021/09/03 09:51:23;;;;;;;14.90;8.27;;;;;;;;;;4977531;28;20037;-70
2021/09/03 09:53:52;;;;;;;18.48;7.57;;;;;;;;;;4986071;28;20049;-69
2021/09/03 09:56:19;;;;;;;16.60;8.60;;;;;;;;;;4979385;28;20039;-70
2021/09/03 09:58:45;;;;;;;18.83;7.95;;;;;;;;;;4989327;28;20040;-70
2021/09/03 10:01:10;;;;;;;18.35;8.60;;;;;;;;;;4979934;28;20026;-69
2021/09/03 10:03:36;;;;;;;19.30;8.20;;;;;;;;;;4989859;28;20482;-69
2021/09/03 10:06:02;;;;;;;13.13;8.05;;;;;;;;;;4981133;28;20388;-69
2021/09/03 10:08:28;;;;;;;18.85;9.57;;;;;;;;;;4983059;28;20080;-70
2021/09/03 10:10:54;;;;;;;16.55;9.48;;;;;;;;;;4973523;28;20033;-70
2021/09/03 10:13:20;;;;;;;21.50;8.88;;;;;;;;;;4981553;28;20022;-70
2021/09/03 10:15:46;;;;;;;14.38;8.45;;;;;;;;;;4987156;28;20467;-69
2021/09/03 10:18:12;;;;;;;17.83;8.63;;;;;;;;;;4975645;28;20023;-68
2021/09/03 10:20:38;;;;;;;15.57;8.23;;;;;;;;;;4978812;28;20081;-69
2021/09/03 10:23:04;;;;;;;21.83;8.82;;;;;;;;;;4987972;28;20033;-68
2021/09/03 10:25:50;;;;;;;12.88;7.72;;;;;;;;;;4990179;28;20030;-70
2021/09/03 10:28:25;;;;;;;14.23;7.20;;;;;;;;;;4987866;28;20133;-69
2021/09/03 10:31:21;;;;;;;14.32;8.15;;;;;;;;;;4989047;28;20506;-69
2021/09/03 10:33:47;;;;;;;15.23;8.25;;;;;;;;;;4986477;28;20084;-70
2021/09/03 10:36:13;;;;;;;15.55;9.25;;;;;;;;;;4989244;28;20106;-70
2021/09/03 10:38:42;;;;;;;14.40;8.15;;;;;;;;;;4989845;28;20106;-69
2021/09/03 10:41:08;;;;;;;18.92;8.23;;;;;;;;;;4989452;28;20027;-70
2021/09/03 10:43:40;;;;;;;18.58;9.00;;;;;;;;;;4987527;28;20030;-71
2021/09/03 10:46:07;;;;;;;16.15;8.35;;;;;;;;;;4988170;28;21389;-70
2021/09/03 10:48:33;;;;;;;15.38;8.73;;;;;;;;;;4987563;28;20034;-69
2021/09/03 10:51:00;;;;;;;17.63;8.27;;;;;;;;;;4986397;28;20102;-69
2021/09/03 10:53:27;;;;;;;18.80;8.73;;;;;;;;;;4988488;28;20098;-69
2021/09/03 10:56:05;;;;;;;20.08;9.15;;;;;;;;;;4988841;28;20077;-70
2021/09/03 10:58:39;;;;;;;18.35;8.02;;;;;;;;;;4989491;28;20038;-71
2021/09/03 11:01:11;;;;;;;17.35;10.27;;;;;;;;;;4988049;28;20049;-70
2021/09/03 11:03:45;;;;;;;18.50;9.65;;;;;;;;;;4990812;28;20053;-70
2021/09/03 11:06:26;;;;;;;17.58;9.80;;;;;;;;;;4986006;28;20065;-71
2021/09/03 11:08:54;;;;;;;21.30;9.77;;;;;;;;;;4988053;28;20353;-71
2021/09/03 11:11:36;;;;;;;16.63;9.13;;;;;;;;;;4988504;28;20532;-70
2021/09/03 11:14:09;;;;;;;20.88;9.35;;;;;;;;;;4989479;28;20034;-70
2021/09/03 11:16:35;;;;;;;20.15;9.98;;;;;;;;;;4983980;28;20037;-71
2021/09/03 11:19:02;;;;;;;18.30;9.27;;;;;;;;;;4978321;28;20059;-70
2021/09/03 11:21:42;;;;;;;23.52;11.48;;;;;;;;;;4986027;28;20026;-70
2021/09/03 11:24:09;;;;;;;17.90;8.15;;;;;;;;;;4986137;28;20034;-70
2021/09/03 11:26:36;;;;;;;20.63;10.13;;;;;;;;;;4984557;28;20045;-71
2021/09/03 11:29:06;;;;;;;17.92;9.35;;;;;;;;;;4986233;28;20033;-71
2021/09/03 11:31:34;;;;;;;19.33;9.55;;;;;;;;;;4990353;28;20102;-70
2021/09/03 11:34:05;;;;;;;17.23;9.45;;;;;;;;;;4984092;28;20399;-73
2021/09/03 11:36:44;;;;;;;19.13;10.43;;;;;;;;;;4977429;28;20023;-72
2021/09/03 11:39:14;;;;;;;18.15;10.45;;;;;;;;;;4982416;28;20041;-70
2021/09/03 11:41:47;;;;;;;19.40;9.48;;;;;;;;;;4987869;28;20044;-70
2021/09/03 11:44:13;;;;;;;20.55;10.18;;;;;;;;;;4985939;28;20086;-71
2021/09/03 11:46:39;;;;;;;20.42;10.82;;;;;;;;;;4985541;28;20579;-70
2021/09/03 11:49:04;;;;;;;24.55;10.68;;;;;;;;;;4983964;28;20022;-70
2021/09/03 11:51:32;;;;;;;15.82;8.85;;;;;;;;;;4982118;28;20495;-70
2021/09/03 11:54:01;;;;;;;18.52;10.63;;;;;;;;;;4980484;28;20385;-70
2021/09/03 11:56:27;;;;;;;19.55;10.40;;;;;;;;;;4981457;28;20399;-70
2021/09/03 11:58:53;;;;;;;18.85;9.88;;;;;;;;;;4981983;28;20027;-70
2021/09/03 12:01:23;;;;;;;20.95;10.38;;;;;;;;;;4978559;28;20486;-70
2021/09/03 12:03:50;;;;;;;22.98;11.63;;;;;;;;;;4986241;28;20057;-70
2021/09/03 12:06:18;;;;;;;14.60;8.18;;;;;;;;;;4981402;28;20128;-70
2021/09/03 12:08:44;;;;;;;18.50;10.10;;;;;;;;;;4987420;28;20026;-70
2021/09/03 12:11:19;;;;;;;17.73;10.27;;;;;;;;;;4984376;28;20143;-70
2021/09/03 12:13:56;;;;;;;23.05;11.13;;;;;;;;;;4985523;28;20033;-70
2021/09/03 12:16:23;;;;;;;20.33;10.77;;;;;;;;;;4984698;28;20356;-70
2021/09/03 12:18:50;;;;;;;17.55;11.45;;;;;;;;;;4985052;28;20090;-70
2021/09/03 12:21:24;;;;;;;18.15;10.50;;;;;;;;;;4974844;28;20106;-70
2021/09/03 12:23:53;;;;;;;23.48;10.68;;;;;;;;;;4968832;28;20435;-70
2021/09/03 12:26:22;;;;;;;20.17;10.25;;;;;;;;;;4976645;28;20037;-70
2021/09/03 12:28:48;;;;;;;;;;;;;;;;;;4974854;28;20030;-70
2021/09/03 12:31:15;;;;;;;20.60;10.30;;;;;;;;;;4978180;28;20268;-70
2021/09/03 12:33:49;;;;;;;17.35;10.48;;;;;;;;;;4982762;28;20392;-70
2021/09/03 12:36:18;;;;;;;19.05;11.20;;;;;;;;;;4983087;28;20766;-70
2021/09/03 12:38:44;;;;;;;22.52;10.63;;;;;;;;;;4983031;28;20561;-69
2021/09/03 12:41:15;;;;;;;19.00;11.88;;;;;;;;;;4979643;28;20124;-70
2021/09/03 12:43:41;;;;;;;20.63;10.43;;;;;;;;;;4967269;28;20147;-70
2021/09/03 12:46:08;;;;;;;22.83;10.77;;;;;;;;;;4968957;28;20034;-70
2021/09/03 12:48:34;;;;;;;22.08;11.45;;;;;;;;;;4963570;28;20050;-70
2021/09/03 12:51:00;;;;;;;20.90;10.40;;;;;;;;;;4959407;28;20039;-70
2021/09/03 12:53:26;;;;;;;25.67;10.95;;;;;;;;;;4967889;28;20094;-70
2021/09/03 12:55:52;;;;;;;25.27;11.23;;;;;;;;;;4969897;28;20082;-69
2021/09/03 12:58:18;;;;;;;19.70;9.88;;;;;;;;;;4968777;28;20540;-71
2021/09/03 13:00:44;;;;;;;27.23;11.43;;;;;;;;;;4966264;28;20421;-69
2021/09/03 13:03:11;;;;;;;23.13;9.82;;;;;;;;;;4962536;28;20082;-68
2021/09/03 13:05:38;;;;;;;22.30;10.32;;;;;;;;;;4963555;28;20115;-68
2021/09/03 13:08:05;;;;;;;19.77;10.57;;;;;;;;;;4968094;28;20373;-69
2021/09/03 13:10:31;;;;;;;19.02;11.10;;;;;;;;;;4961781;28;20061;-69
2021/09/03 13:12:57;;;;;;;20.63;11.30;;;;;;;;;;4971529;28;20033;-69
2021/09/03 13:15:23;;;;;;;20.65;9.55;;;;;;;;;;4968713;28;20039;-69
2021/09/03 13:17:49;;;;;;;21.05;10.48;;;;;;;;;;4975841;28;20106;-69
2021/09/03 13:20:15;;;;;;;20.35;9.52;;;;;;;;;;4969919;28;20020;-69
2021/09/03 13:22:41;;;;;;;21.23;10.13;;;;;;;;;;4977839;28;20030;-69
2021/09/03 13:25:08;;;;;;;20.17;9.13;;;;;;;;;;4986216;28;20098;-69
2021/09/03 13:27:34;;;;;;;18.40;9.38;;;;;;;;;;4959418;28;20022;-69
2021/09/03 13:30:00;;;;;;;20.02;11.07;;;;;;;;;;4955598;28;20485;-69
2021/09/03 13:32:26;;;;;;;20.23;9.82;;;;;;;;;;4981282;28;20066;-69
2021/09/03 13:34:52;;;;;;;18.80;10.10;;;;;;;;;;4985330;28;20104;-69
2021/09/03 13:37:19;;;;;;;22.38;10.45;;;;;;;;;;4954038;28;20027;-69
2021/09/03 13:39:48;;;;;;;22.55;11.90;;;;;;;;;;4956576;28;20074;-69
2021/09/03 13:42:14;;;;;;;;;;;;;;;;;;4966173;28;20093;-69
2021/09/03 13:44:41;;;;;;;17.10;8.93;;;;;;;;;;4972654;28;19957;-69
2021/09/03 13:47:08;;;;;;;20.63;10.00;;;;;;;;;;4985079;28;20401;-69
2021/09/03 13:49:34;;;;;;;15.18;9.15;;;;;;;;;;4958812;28;20035;-69
2021/09/03 13:52:00;;;;;;;22.73;11.52;;;;;;;;;;4974270;28;20037;-69
2021/09/03 13:54:26;;;;;;;19.83;10.55;;;;;;;;;;4962030;28;20043;-69
2021/09/03 13:56:53;;;;;;;21.85;10.45;;;;;;;;;;4966181;28;20052;-69
2021/09/03 13:59:19;;;;;;;23.50;10.60;;;;;;;;;;4975879;28;20023;-69
2021/09/03 14:01:45;;;;;;;18.73;9.82;;;;;;;;;;4965627;28;20038;-69
2021/09/03 14:04:11;;;;;;;20.25;9.38;;;;;;;;;;4957742;28;20432;-69
2021/09/03 14:06:37;;;;;;;18.42;10.40;;;;;;;;;;4974439;28;20476;-69
2021/09/03 14:09:03;;;;;;;20.90;10.57;;;;;;;;;;4974722;28;20085;-69
2021/09/03 14:11:29;;;;;;;18.45;9.88;;;;;;;;;;4956735;28;20486;-69
2021/09/03 14:13:55;;;;;;;17.20;9.85;;;;;;;;;;4953007;28;20038;-69
2021/09/03 14:16:21;;;;;;;19.83;10.15;;;;;;;;;;4961953;28;20022;-69
2021/09/03 14:18:47;;;;;;;19.02;10.07;;;;;;;;;;4965632;28;20031;-68
2021/09/03 14:21:13;;;;;;;20.77;9.23;;;;;;;;;;4964122;28;20078;-69
2021/09/03 14:23:39;;;;;;;21.08;10.18;;;;;;;;;;4965846;28;20038;-69